Terminal Aerodrome Forecast
Issued by NWS

Home | Current Version | Previous Version | Text Only | Print | Product List | Glossary On
Versions: 1 2 3 4 5 6 7 8 9 10 11 12
000
FTUS45 KRIW 210500
TAFJAC
TAF
KJAC 210526Z 2106/2206 VRB04KT P6SM SCT250
     FM211700 20010KT P6SM SCT060 BKN250
     FM220000 20009KT P6SM SCT060 BKN100
      AMD LTD TO CLD VIS AND WIND=

USA.gov is the U.S. government's official web portal to all federal, state and local government web resources and services.